AirNav   TITAN Aviation Fuels
 
 1160 users online  

0PS9 Jefferson Health Bucks County Campus Heliport
Fairless Hills, Pennsylvania, USA

GOING TO FAIRLESS HILLS?


FAA INFORMATION EFFECTIVE 22 APRIL 2021

Location

FAA Identifier: 0PS9
Lat/Long: 40-10-57.7800N 074-52-04.8300W
40-10.963000N 074-52.080500W
40.1827167,-74.8680083
(estimated)
Elevation: 141 ft. / 43 m (estimated)
Variation: 12W (1980)
Time zone: UTC -4 (UTC -5 during Standard Time)
Zip code: 19030

Heliport Operations

Heliport use: Private use, MEDICAL USE.
Activation date: 11/1986
Control tower: no
ARTCC: NEW YORK CENTER
FSS: WILLIAMSPORT FLIGHT SERVICE STATION
Attendance: CONTINUOUS
Wind indicator: yes
Segmented circle: no

Heliport Communications

WX ASOS at TTN (6 nm NE): 126.775 (609-538-8690)
WX ASOS at PNE (9 nm SW): 121.15 (215-677-0146)
WX ASOS at VAY (14 nm S): 119.325 (609-267-1176)
WX ASOS at DYL (15 nm NW): 118.875 (215-345-0392)
WX AWOS-3 at LOM (18 nm W): 118.925 (215-646-1068)

Nearby radio navigation aids

VOR radial/distance  VOR name  Freq  Var
ARDr167/4.6YARDLEY VOR/DME108.2010W
GXUr322/16.2MC GUIRE VORTAC110.6012W
RBVr276/17.1ROBBINSVILLE VORTAC113.8010W
SBJr204/24.7SOLBERG VOR/DME112.9010W
CYNr328/29.7COYLE VORTAC113.4010W
PTWr103/31.8POTTSTOWN VORTAC116.5009W
COLr268/33.3COLTS NECK VOR/DME115.4011W
BWZr194/37.0BROADWAY VOR/DME114.2011W
OODr041/38.4WOODSTOWN VORTAC112.8010W
VCNr017/39.0CEDAR LAKE VOR/DME115.2010W

 
NDB name  Hdg/Dist  Freq  Var  ID
AMBLER092/19.427512WING .. -. --.
LAKEHURST300/25.839611WNEL -. . .-..
CHATHAM224/39.025413WCAT -.-. .- -

Heliport Services

Runway Information

Helipad H1

Dimensions: 65 x 65 ft. / 20 x 20 m
Surface: asphalt
ASPH TLOF 40 FT DIAM.
Latitude: 40-10.963000N
Longitude: 074-52.080500W
Elevation: 141.0 ft.
Traffic pattern: leftleft

Heliport Ownership and Management from official FAA records

Ownership: Privately-owned
Owner: ARIA - JEFFERSON HEALTH
4900 FRANKFORD AVE
PHILADELPHIA, PA 19124
Phone 215-831-2594
Manager: DARRYL BEARD
380 NORTH OXFORD VALLEY RD
LANGHORNE, PA 19047
Phone 267-587-0837

Additional Remarks

FOR CD CTC PHILADELPHIA APCH AT 800-354-9884
(CONTACT TITLE) OTR CTC JOHN.ARDENTE@JEFFERSON.EDU

Instrument Procedures

There are no published instrument procedures at 0PS9.

Some nearby airports with instrument procedures:

KTTN - Trenton Mercer Airport (6 nm NE)
KPNE - Northeast Philadelphia Airport (9 nm SW)
N87 - Trenton-Robbinsville Airport (12 nm E)
KVAY - South Jersey Regional Airport (14 nm S)
KDYL - Doylestown Airport (15 nm NW)
N14 - Flying W Airport (15 nm S)
39N - Princeton Airport (16 nm NE)
KWRI - McGuire Field (Joint Base Mc Guire Dix Lakehurst) Airport (16 nm SE)
KLOM - Wings Field Airport (18 nm W)
 
Loc | Ops | Rwys | IFR | FBO | Links
Com | Nav | Svcs | Stats | Notes
Area around 0PS9 (Jefferson Health Bucks County Campus Heliport)
 
Road maps at: MapQuest Bing Google
 
Aerial photo
No photo
 
Sectional chart

 
Airport distance calculator
Flying to Jefferson Health Bucks County Campus Heliport? Find the distance to fly.

From to 0PS9

Sunrise and sunset
Times for 16-May-2021
 Local
(UTC-4)
 Zulu
(UTC)
Morning civil twilight05:1309:13
Sunrise05:4409:44
Sunset20:0800:08
Evening civil twilight20:3900:39

Current date and time
Zulu (UTC)  16-May-2021 19:48:21
Local (UTC-4)  16-May-2021 15:48:21
 
METAR
KTTN 
6nm N 
ASOS 133.70 609-538-8690
161853Z 20008KT 10SM CLR 21/07 A3023 RMK AO2 SLP232 T02110067
KPNE 
9nm SW 
161854Z 00000KT 10SM CLR 22/04 A3025 RMK AO2 SLP244 T02170039
KDYL 
15nm NW 
161854Z AUTO 10SM CLR 22/03 A3024 RMK AO2 SLP237 T02220033
KVAY 
15nm S 
ASOS 119.325 609-267-1176
161854Z AUTO VRB03KT 10SM CLR 22/00 A3024 RMK AO2 SLP240 T02220000
KWRI 
16nm SE 
161856Z AUTO 21006KT 10SM FEW120 SCT160 BKN190 22/04 A3024 RMK AO2 SLP240 T02220043 $
KLOM 
18nm W 
161935Z AUTO 23003KT 10SM CLR 22/05 A3024 RMK AO2 T02190047
TAF
KTTN 
6nm N 
161724Z 1618/1718 22007KT P6SM VCSH SCT060 BKN120 FM170000 18005KT P6SM BKN100 FM170300 VRB03KT P6SM SCT150 FM171500 23005KT P6SM FEW060 BKN120 FM171700 21007KT P6SM SCT060 BKN100
KPNE 
9nm SW 
161724Z 1618/1718 22008KT P6SM VCSH SCT060 BKN120 FM170000 20005KT P6SM BKN100 FM170300 VRB03KT P6SM SCT150 FM171500 17005KT P6SM FEW060 BKN120 FM171700 21008KT P6SM SCT060 BKN100
KWRI 
16nm SE 
161800Z 1618/1724 25008KT 9999 BKN150 QNH3021INS BECMG 1619/1620 22007KT 9000 VCSH SCT060 BKN130 QNH3020INS BECMG 1702/1703 20006KT 9999 NSW SCT050 BKN120 QNH3024INS TEMPO 1718/1721 9000 VCSH BKN040 TX23/1619Z TN08/1710Z
NOTAMs
Click for the latest NOTAMs
NOTAMs are issued by the DoD/FAA and will open in a separate window not controlled by AirNav.

 

 
 

Would you like to see your business listed on this page?

 If your business provides an interesting product or service to pilots, flight crews, aircraft, or users of the Jefferson Health Bucks County Campus Heliport, you should consider listing it here.  To start the listing process, click on the button below
 
Add a business
 

Other Pages about Jefferson Health Bucks County Campus Heliport

Update a link
 
Copyright © AirNav, LLC. All rights reserved. Privacy Policy  Contact